Terminal Aerodrome Forecast
Issued by NWS

Current Version | Previous Version | Text Only | Print | Product List | Glossary On
Versions: 1 2 3 4 5 6 7 8 9 10 11 12 13 14 15 16 17 18 19 20 21 22 23 24 25 26 27 28 29 30 31 32 33 34 35 36 37 38 39 40 41 42 43 44 45 46 47 48 49 50
000
FTUS46 KPQR 231802 AAA
TAFONP
TAF AMD
KONP 231802Z 2318/2418 33009KT 6SM BR SCT003 OVC007
     FM240100 32009KT 6SM BR SCT007 OVC015
     FM240600 33004KT P6SM OVC020
     FM241000 36005KT 6SM -DZ BR OVC009=

USA.gov is the U.S. government's official web portal to all federal, state and local government web resources and services.